Time;durP1;ratioP1;P1;durP2;ratioP2;P2;SDS_P1;SDS_P2;PMS_P1;PMS_P2;Temp;Humidity;BMP_temperature;BMP_pressure;BME280_temperature;BME280_humidity;BME280_pressure;Samples;Min_cycle;Max_cycle;Signal;HPM_P1;HPM_P2
2022/04/24 00:01:52;;;;;;;10.30;7.10;;;10.90;99.90;;;;;;5134362;27;20482;-74
2022/04/24 00:04:18;;;;;;;10.23;7.07;;;10.80;99.90;;;;;;5133099;27;20039;-74
2022/04/24 00:06:46;;;;;;;8.40;6.60;;;10.80;99.90;;;;;;5133478;27;20147;-74
2022/04/24 00:09:14;;;;;;;9.73;6.77;;;10.80;99.90;;;;;;5134150;27;20086;-73
2022/04/24 00:11:40;;;;;;;11.00;6.73;;;10.90;99.60;;;;;;5133583;27;20373;-74
2022/04/24 00:14:09;;;;;;;9.00;6.67;;;10.80;99.60;;;;;;5132836;27;20316;-74
2022/04/24 00:16:36;;;;;;;8.97;6.67;;;10.90;99.60;;;;;;5134532;27;20042;-74
2022/04/24 00:19:02;;;;;;;9.93;6.30;;;10.80;99.90;;;;;;5116266;27;20288;-73
2022/04/24 00:21:28;;;;;;;8.00;6.43;;;10.70;99.40;;;;;;5133855;27;20273;-73
2022/04/24 00:23:53;;;;;;;10.03;6.37;;;10.80;99.60;;;;;;5134224;27;20303;-74
2022/04/24 00:26:19;;;;;;;9.70;6.53;;;10.70;99.50;;;;;;5132997;27;20149;-74
2022/04/24 00:28:44;;;;;;;8.27;6.00;;;10.70;99.40;;;;;;5134176;27;20149;-74
2022/04/24 00:31:10;;;;;;;9.17;6.33;;;10.70;99.90;;;;;;5134254;27;20043;-74
2022/04/24 00:33:36;;;;;;;9.33;6.00;;;10.60;99.90;;;;;;5134101;27;20479;-73
2022/04/24 00:36:01;;;;;;;11.83;6.40;;;10.60;99.90;;;;;;5134033;27;20047;-73
2022/04/24 00:38:27;;;;;;;9.80;6.83;;;10.50;99.90;;;;;;5133741;27;20050;-74
2022/04/24 00:40:54;;;;;;;8.77;6.67;;;10.50;99.90;;;;;;5132989;27;20074;-74
2022/04/24 00:43:20;;;;;;;10.77;5.83;;;10.50;99.90;;;;;;5133288;27;20047;-73
2022/04/24 00:45:45;;;;;;;8.73;6.10;;;10.50;99.90;;;;;;5133061;27;20281;-74
2022/04/24 00:48:11;;;;;;;8.30;5.93;;;10.50;99.80;;;;;;5133563;28;20281;-73
2022/04/24 00:50:40;;;;;;;7.77;6.17;;;10.50;99.90;;;;;;5132637;28;20196;-74
2022/04/24 00:53:07;;;;;;;8.83;5.73;;;10.40;99.90;;;;;;5133875;28;20043;-73
2022/04/24 00:55:32;;;;;;;11.77;6.23;;;10.30;99.90;;;;;;5133536;28;20288;-74
2022/04/24 00:57:58;;;;;;;8.37;6.30;;;10.30;99.90;;;;;;5133854;28;20276;-74
2022/04/24 01:00:24;;;;;;;9.50;6.60;;;10.30;99.90;;;;;;5132586;28;20047;-74
2022/04/24 01:02:49;;;;;;;9.70;5.97;;;10.30;99.90;;;;;;5132791;28;20054;-73
2022/04/24 01:05:17;;;;;;;10.07;6.20;;;10.20;99.90;;;;;;5133578;28;20038;-74
2022/04/24 01:07:44;;;;;;;10.00;5.90;;;10.20;99.90;;;;;;5133818;28;20117;-74
2022/04/24 01:10:09;;;;;;;10.57;6.17;;;10.10;99.90;;;;;;5134049;28;20273;-74
2022/04/24 01:12:35;;;;;;;8.07;6.03;;;10.10;99.90;;;;;;5132443;28;20299;-74
2022/04/24 01:15:02;;;;;;;11.53;5.57;;;10.00;99.90;;;;;;5133792;28;20053;-73
2022/04/24 01:17:28;;;;;;;10.57;6.23;;;10.00;99.90;;;;;;5133407;28;20086;-74
2022/04/24 01:19:54;;;;;;;8.83;6.37;;;9.90;99.90;;;;;;5133592;28;20272;-74
2022/04/24 01:22:19;;;;;;;10.43;7.07;;;9.90;99.90;;;;;;5131989;28;20303;-74
2022/04/24 01:24:45;;;;;;;9.63;7.00;;;9.80;99.90;;;;;;5132613;28;20383;-74
2022/04/24 01:27:11;;;;;;;11.07;7.47;;;9.80;99.90;;;;;;5135992;27;20405;-74
2022/04/24 01:29:36;;;;;;;10.00;6.50;;;9.70;99.90;;;;;;5137553;27;20047;-74
2022/04/24 01:32:02;;;;;;;8.83;6.87;;;9.70;99.90;;;;;;5137535;27;20114;-74
2022/04/24 01:34:28;;;;;;;11.53;7.40;;;9.60;99.90;;;;;;5137238;27;20043;-74
2022/04/24 01:36:54;;;;;;;10.07;7.73;;;9.60;99.90;;;;;;5137500;27;20083;-74
2022/04/24 01:39:19;;;;;;;8.93;7.20;;;9.50;99.90;;;;;;5137119;27;20050;-74
2022/04/24 01:41:45;;;;;;;10.43;7.50;;;9.40;99.90;;;;;;5136258;27;20047;-74
2022/04/24 01:44:11;;;;;;;9.27;7.60;;;9.40;99.90;;;;;;5137504;27;20090;-74
2022/04/24 01:46:37;;;;;;;10.33;7.80;;;9.30;99.90;;;;;;5136925;27;20494;-74
2022/04/24 01:49:03;;;;;;;9.50;7.97;;;9.30;99.90;;;;;;5137192;27;20350;-74
2022/04/24 01:51:29;;;;;;;10.10;7.93;;;9.20;99.90;;;;;;5135876;27;20051;-74
2022/04/24 01:53:55;;;;;;;12.00;7.27;;;9.10;99.90;;;;;;5137091;27;20695;-74
2022/04/24 01:56:20;;;;;;;11.30;7.47;;;9.10;99.90;;;;;;5137061;27;20059;-74
2022/04/24 01:58:46;;;;;;;10.57;8.17;;;9.00;99.90;;;;;;5137045;27;20487;-74
2022/04/24 02:01:12;;;;;;;12.27;8.30;;;9.00;99.90;;;;;;5119096;27;20043;-74
2022/04/24 02:03:38;;;;;;;12.07;9.23;;;9.00;99.90;;;;;;5135160;27;20418;-74
2022/04/24 02:06:05;;;;;;;11.18;8.80;;;9.00;99.90;;;;;;5136859;27;20058;-74
2022/04/24 02:08:34;;;;;;;10.88;8.13;;;8.90;99.90;;;;;;5136552;27;20043;-74
2022/04/24 02:11:00;;;;;;;13.93;8.90;;;8.90;99.90;;;;;;5135566;27;20043;-74
2022/04/24 02:13:25;;;;;;;10.33;8.20;;;8.80;99.90;;;;;;5136377;27;20064;-74
2022/04/24 02:15:51;;;;;;;13.13;8.23;;;8.80;99.90;;;;;;5136745;27;20046;-74
2022/04/24 02:18:17;;;;;;;11.30;8.20;;;8.80;99.90;;;;;;5136624;27;20075;-74
2022/04/24 02:20:42;;;;;;;9.63;7.73;;;8.70;99.90;;;;;;5136300;27;20054;-74
2022/04/24 02:23:11;;;;;;;9.60;7.57;;;8.70;99.90;;;;;;5136458;27;20395;-74
2022/04/24 02:25:37;;;;;;;9.10;7.40;;;8.80;99.90;;;;;;5135952;27;20047;-75
2022/04/24 02:28:03;;;;;;;9.80;7.33;;;8.70;99.90;;;;;;5136446;27;20047;-74
2022/04/24 02:30:30;;;;;;;10.45;8.15;;;8.70;99.90;;;;;;5136052;27;20083;-74
2022/04/24 02:32:57;;;;;;;8.93;7.88;;;8.70;99.90;;;;;;5136334;27;20054;-74
2022/04/24 02:35:23;;;;;;;10.48;8.18;;;8.60;99.90;;;;;;5136347;27;20047;-75
2022/04/24 02:37:49;;;;;;;13.48;8.52;;;8.70;99.90;;;;;;5135580;27;20111;-74
2022/04/24 02:40:19;;;;;;;11.07;8.67;;;8.60;99.90;;;;;;5136168;27;20456;-74
2022/04/24 02:42:45;;;;;;;10.13;7.85;;;8.50;99.90;;;;;;5135607;27;20126;-73
2022/04/24 02:45:11;;;;;;;10.40;8.13;;;8.50;99.90;;;;;;5136213;27;20138;-74
2022/04/24 02:47:40;;;;;;;11.13;8.03;;;8.50;99.90;;;;;;5135550;27;20539;-74
2022/04/24 02:50:07;;;;;;;12.98;8.68;;;8.50;99.90;;;;;;5134845;27;20483;-73
2022/04/24 02:52:33;;;;;;;11.45;8.73;;;8.40;99.90;;;;;;5135974;27;20130;-74
2022/04/24 02:54:58;;;;;;;9.77;8.30;;;8.40;99.90;;;;;;5135995;27;20126;-74
2022/04/24 02:57:24;;;;;;;11.20;8.50;;;8.30;99.90;;;;;;5136024;27;20073;-74
2022/04/24 02:59:50;;;;;;;12.10;8.83;;;8.30;99.90;;;;;;5135540;27;20402;-74
2022/04/24 03:02:16;;;;;;;9.93;8.53;;;8.30;99.90;;;;;;5135564;27;20047;-74
2022/04/24 03:04:43;;;;;;;9.45;7.97;;;8.30;99.90;;;;;;5134285;27;20394;-74
2022/04/24 03:07:09;;;;;;;11.70;8.55;;;8.40;99.90;;;;;;5117213;27;20051;-74
2022/04/24 03:09:34;;;;;;;11.80;8.07;;;8.40;99.90;;;;;;5135291;27;20043;-74
2022/04/24 03:12:00;;;;;;;10.13;8.63;;;8.30;99.90;;;;;;5134585;27;20057;-74
2022/04/24 03:14:26;;;;;;;9.57;8.40;;;8.40;99.90;;;;;;5135542;27;20497;-74
2022/04/24 03:16:51;;;;;;;11.57;8.63;;;8.30;99.90;;;;;;5135192;27;20051;-74
2022/04/24 03:19:17;;;;;;;11.27;8.53;;;8.30;99.90;;;;;;5135871;27;20387;-74
2022/04/24 03:21:43;;;;;;;11.03;8.40;;;8.30;99.90;;;;;;5134104;27;20043;-74
2022/04/24 03:24:08;;;;;;;11.03;8.57;;;8.20;99.90;;;;;;5135490;27;20089;-73
2022/04/24 03:26:34;;;;;;;12.63;8.70;;;8.20;99.90;;;;;;5134974;27;20055;-74
2022/04/24 03:29:00;;;;;;;10.70;7.83;;;8.20;99.90;;;;;;5135275;27;20043;-74
2022/04/24 03:31:26;;;;;;;12.53;8.03;;;8.20;99.90;;;;;;5134271;27;20042;-74
2022/04/24 03:33:52;;;;;;;11.87;8.10;;;8.20;99.90;;;;;;5134760;27;20364;-74
2022/04/24 03:36:18;;;;;;;11.07;8.80;;;8.20;99.90;;;;;;5134802;27;20047;-74
2022/04/24 03:38:44;;;;;;;12.23;8.57;;;8.20;99.90;;;;;;5134748;27;20043;-74
2022/04/24 03:41:11;;;;;;;11.43;8.53;;;8.10;99.90;;;;;;5134263;27;20047;-74
2022/04/24 03:43:36;;;;;;;10.90;8.35;;;8.00;99.90;;;;;;5116038;27;20113;-74
2022/04/24 03:46:05;;;;;;;11.37;8.70;;;8.10;99.90;;;;;;5134956;27;20425;-75
2022/04/24 03:48:32;;;;;;;11.00;8.30;;;8.00;99.90;;;;;;5134209;27;20135;-74
2022/04/24 03:50:57;;;;;;;10.75;8.57;;;8.00;99.90;;;;;;5134325;27;20051;-74
2022/04/24 03:53:23;;;;;;;10.17;8.57;;;8.00;99.90;;;;;;5133966;27;20099;-74
2022/04/24 03:55:49;;;;;;;12.50;8.97;;;8.00;99.90;;;;;;5134422;27;20527;-74
2022/04/24 03:58:14;;;;;;;10.67;9.03;;;7.90;99.90;;;;;;5134032;27;20050;-74
2022/04/24 04:00:40;;;;;;;10.40;7.50;;;7.90;99.90;;;;;;5133406;27;20049;-74
2022/04/24 04:03:06;;;;;;;11.43;9.33;;;7.90;99.90;;;;;;5134141;27;20075;-74
2022/04/24 04:05:35;;;;;;;10.90;8.67;;;7.80;99.90;;;;;;5133456;27;20104;-74
2022/04/24 04:08:01;;;;;;;11.43;7.65;;;7.90;99.90;;;;;;5134442;27;20043;-74
2022/04/24 04:10:26;;;;;;;10.57;8.23;;;7.90;99.90;;;;;;5134409;27;20107;-74
2022/04/24 04:12:52;;;;;;;11.27;8.47;;;7.90;99.90;;;;;;5134124;27;20066;-74
2022/04/24 04:15:18;;;;;;;12.60;8.60;;;7.90;99.90;;;;;;5133140;27;20039;-74
2022/04/24 04:17:44;;;;;;;13.07;9.32;;;7.90;99.90;;;;;;5134125;27;20439;-74
2022/04/24 04:20:11;;;;;;;11.73;8.70;;;7.90;99.90;;;;;;5133341;27;20133;-74
2022/04/24 04:23:03;;;;;;;9.88;8.10;;;7.90;99.90;;;;;;5132720;27;20394;-74
2022/04/24 04:25:29;;;;;;;11.57;8.35;;;7.90;99.90;;;;;;5130183;27;20164;-75
2022/04/24 04:27:55;;;;;;;10.13;8.33;;;8.00;99.90;;;;;;5115890;27;20550;-75
2022/04/24 04:30:21;;;;;;;12.10;8.23;;;8.00;99.90;;;;;;5134142;27;20043;-74
2022/04/24 04:32:48;;;;;;;11.27;7.97;;;8.00;99.90;;;;;;5133793;27;20039;-74
2022/04/24 04:35:13;;;;;;;10.90;8.05;;;8.00;99.90;;;;;;5132874;27;20130;-74
2022/04/24 04:37:40;;;;;;;10.80;7.87;;;8.00;99.90;;;;;;5133505;27;20118;-74
2022/04/24 04:40:07;;;;;;;11.75;8.57;;;7.90;99.90;;;;;;5134000;27;20050;-75
2022/04/24 04:42:33;;;;;;;11.43;8.23;;;8.00;99.90;;;;;;5132198;28;20082;-74
2022/04/24 04:45:00;;;;;;;10.27;7.87;;;8.00;99.90;;;;;;5133359;27;20151;-74
2022/04/24 04:47:29;;;;;;;9.45;7.43;;;8.00;99.90;;;;;;5115786;28;20710;-74
2022/04/24 04:49:55;;;;;;;10.40;8.50;;;8.10;99.90;;;;;;5133610;28;20484;-75
2022/04/24 04:52:21;;;;;;;10.77;8.40;;;8.00;99.90;;;;;;5133916;28;20156;-75
2022/04/24 04:54:47;;;;;;;11.60;8.18;;;7.90;99.90;;;;;;5132513;28;20387;-74
2022/04/24 04:57:13;;;;;;;11.20;7.47;;;7.90;99.90;;;;;;5132998;28;20082;-75
2022/04/24 04:59:39;;;;;;;14.47;8.73;;;8.00;99.90;;;;;;5133762;27;20051;-75
2022/04/24 05:02:05;;;;;;;11.85;7.70;;;8.00;99.90;;;;;;5136654;27;20125;-74
2022/04/24 05:04:30;;;;;;;11.17;7.70;;;8.00;99.90;;;;;;5137087;27;20082;-74
2022/04/24 05:06:56;;;;;;;12.60;7.83;;;8.00;99.90;;;;;;5137719;27;20211;-74
2022/04/24 05:09:22;;;;;;;12.13;7.67;;;8.00;99.90;;;;;;5138372;27;20073;-74
2022/04/24 05:11:47;;;;;;;10.40;7.63;;;8.00;99.90;;;;;;5137642;27;20043;-75
2022/04/24 05:14:13;;;;;;;12.70;8.20;;;8.10;99.90;;;;;;5137852;27;20043;-74
2022/04/24 05:16:39;;;;;;;10.87;7.27;;;8.10;99.90;;;;;;5137802;27;20039;-74
2022/04/24 05:19:07;;;;;;;9.43;7.37;;;8.10;99.90;;;;;;5137379;27;20043;-74
2022/04/24 05:21:33;;;;;;;10.60;7.30;;;8.20;99.90;;;;;;5136392;27;20043;-75
2022/04/24 05:24:00;;;;;;;13.10;8.82;;;8.20;99.90;;;;;;5137347;27;20047;-74
2022/04/24 05:26:26;;;;;;;11.18;7.68;;;8.20;99.90;;;;;;5137835;27;20058;-74
2022/04/24 05:28:52;;;;;;;10.27;7.00;;;8.20;99.90;;;;;;5136913;27;20490;-74
2022/04/24 05:31:19;;;;;;;10.25;7.70;;;8.30;99.90;;;;;;5136522;27;20051;-75
2022/04/24 05:33:44;;;;;;;11.15;7.95;;;8.30;99.90;;;;;;5135969;27;20051;-74
2022/04/24 05:36:10;;;;;;;12.97;8.20;;;8.30;99.90;;;;;;5137754;27;20145;-75
2022/04/24 05:38:36;;;;;;;10.23;7.53;;;8.40;99.90;;;;;;5137456;27;20085;-74
2022/04/24 05:41:02;;;;;;;14.07;8.20;;;8.50;99.90;;;;;;5136516;27;20490;-74
2022/04/24 05:43:29;;;;;;;11.65;7.45;;;8.50;99.90;;;;;;5137045;27;20058;-74
2022/04/24 05:45:54;;;;;;;10.60;8.25;;;8.60;99.90;;;;;;5136932;27;20062;-74
2022/04/24 05:48:22;;;;;;;12.27;8.23;;;8.70;99.90;;;;;;5137394;27;20043;-74
2022/04/24 05:50:48;;;;;;;12.52;7.60;;;9.00;99.90;;;;;;5136851;27;20051;-74
2022/04/24 05:53:14;;;;;;;11.20;7.57;;;9.80;99.90;;;;;;5137493;27;20118;-74
2022/04/24 05:55:40;;;;;;;13.37;8.37;;;10.60;99.90;;;;;;5137041;27;20122;-74
2022/04/24 05:58:06;;;;;;;9.70;7.83;;;11.30;99.90;;;;;;5135736;27;20776;-75
2022/04/24 06:00:32;;;;;;;12.23;7.43;;;11.80;99.90;;;;;;5136920;27;20092;-75
2022/04/24 06:02:58;;;;;;;9.33;7.70;;;12.40;99.90;;;;;;5136470;27;20297;-75
2022/04/24 06:05:24;;;;;;;12.23;8.70;;;12.80;99.90;;;;;;5136866;27;20120;-75
2022/04/24 06:07:50;;;;;;;12.70;7.60;;;13.20;99.10;;;;;;5136592;27;20281;-75
2022/04/24 06:10:15;;;;;;;12.03;7.93;;;13.70;95.40;;;;;;5136153;27;20050;-75
2022/04/24 06:12:52;;;;;;;11.97;7.43;;;14.00;93.80;;;;;;5134886;27;20621;-75
2022/04/24 06:15:21;;;;;;;10.33;6.87;;;14.10;82.90;;;;;;5135474;27;20047;-75
2022/04/24 06:17:49;;;;;;;12.10;8.00;;;;;;;;;;5135099;27;20684;-74
2022/04/24 06:20:16;;;;;;;15.90;7.17;;;14.50;77.50;;;;;;5136676;27;20281;-75
2022/04/24 06:22:47;;;;;;;10.80;7.40;;;14.50;78.20;;;;;;5135469;27;20296;-74
2022/04/24 06:25:24;;;;;;;11.10;6.90;;;14.70;76.10;;;;;;5136895;27;20328;-75
2022/04/24 06:27:51;;;;;;;10.60;6.93;;;14.70;75.10;;;;;;5136646;27;20288;-75
2022/04/24 06:30:18;;;;;;;9.03;6.80;;;14.90;72.60;;;;;;5135228;27;20289;-75
2022/04/24 06:32:44;;;;;;;8.43;6.50;;;15.00;71.10;;;;;;5135506;27;20633;-75
2022/04/24 06:35:14;;;;;;;12.43;7.10;;;15.20;68.50;;;;;;5135021;27;20292;-75
2022/04/24 06:37:45;;;;;;;11.53;6.67;;;15.40;67.20;;;;;;5135230;27;20292;-75
2022/04/24 06:40:12;;;;;;;11.27;7.13;;;15.70;67.80;;;;;;5135009;27;20632;-75
2022/04/24 06:43:00;;;;;;;8.50;6.30;;;15.80;65.50;;;;;;5136234;27;20299;-75
2022/04/24 06:45:34;;;;;;;9.57;6.40;;;16.20;62.30;;;;;;5136473;27;20276;-75
2022/04/24 06:48:06;;;;;;;11.10;6.30;;;16.20;62.40;;;;;;5134843;27;20625;-75
2022/04/24 06:50:33;;;;;;;10.13;6.17;;;16.20;61.10;;;;;;5136023;27;20047;-75
2022/04/24 06:53:07;;;;;;;9.43;6.27;;;16.10;59.40;;;;;;5135705;27;20629;-75
2022/04/24 06:55:35;;;;;;;11.52;5.75;;;16.20;58.80;;;;;;5136242;27;20342;-75
2022/04/24 06:58:02;;;;;;;9.97;5.83;;;16.30;58.40;;;;;;5134673;27;20046;-75
2022/04/24 07:00:31;;;;;;;9.67;5.90;;;16.40;71.40;;;;;;5135874;27;20360;-76
2022/04/24 07:02:56;;;;;;;10.50;6.70;;;16.70;69.90;;;;;;5135390;27;20293;-74
2022/04/24 07:05:23;;;;;;;12.37;6.33;;;;;;;;;;5135972;27;20281;-70
2022/04/24 07:07:49;;;;;;;9.67;6.00;;;17.20;91.30;;;;;;5134631;27;20165;-70
2022/04/24 07:10:15;;;;;;;8.23;5.07;;;17.30;89.60;;;;;;5135270;27;20398;-73
2022/04/24 07:12:49;;;;;;;7.23;4.93;;;17.40;89.50;;;;;;5135704;27;20722;-74
2022/04/24 07:15:17;;;;;;;6.40;4.20;;;17.30;88.60;;;;;;5135480;27;20047;-74
2022/04/24 07:17:44;;;;;;;8.77;4.50;;;;;;;;;;5135428;27;20283;-74
2022/04/24 07:20:11;;;;;;;7.90;4.57;;;17.40;53.10;;;;;;5133905;27;20299;-74
2022/04/24 07:22:53;;;;;;;8.53;4.33;;;17.40;52.80;;;;;;5135329;27;20293;-74
2022/04/24 07:25:26;;;;;;;6.43;3.53;;;;;;;;;;5135312;27;20293;-74
2022/04/24 07:27:52;;;;;;;5.90;3.83;;;;;;;;;;5134017;27;20288;-74
2022/04/24 07:30:19;;;;;;;6.33;3.53;;;17.40;50.90;;;;;;5134930;27;20039;-74
2022/04/24 07:32:47;;;;;;;7.03;4.00;;;17.40;51.20;;;;;;5116746;27;20312;-74
2022/04/24 07:35:24;;;;;;;7.47;3.77;;;17.20;50.00;;;;;;5133957;27;20057;-73
2022/04/24 07:37:51;;;;;;;7.47;3.50;;;17.60;51.70;;;;;;5135250;27;20043;-73
2022/04/24 07:40:22;;;;;;;7.07;3.17;;;18.40;51.30;;;;;;5133766;27;20070;-74
2022/04/24 07:42:54;;;;;;;7.50;3.70;;;18.60;49.10;;;;;;5135207;27;20439;-74
2022/04/24 07:45:22;;;;;;;7.13;3.40;;;18.80;48.70;;;;;;5134781;27;20054;-74
2022/04/24 07:47:49;;;;;;;5.70;3.07;;;18.80;48.70;;;;;;5134040;27;20551;-74
2022/04/24 07:50:16;;;;;;;6.33;3.07;;;18.60;47.80;;;;;;5133613;27;20074;-74
2022/04/24 07:52:42;;;;;;;6.37;2.93;;;18.50;48.00;;;;;;5134816;27;20047;-74
2022/04/24 07:55:10;;;;;;;6.43;3.27;;;18.50;48.10;;;;;;5134135;27;20467;-74
2022/04/24 07:57:36;;;;;;;6.87;2.50;;;18.60;48.60;;;;;;5134742;27;20085;-74
2022/04/24 08:00:02;;;;;;;6.07;2.97;;;18.30;48.00;;;;;;5133335;27;20079;-74
2022/04/24 08:02:28;;;;;;;5.07;2.57;;;17.80;53.70;;;;;;5133275;27;20043;-74
2022/04/24 08:04:53;;;;;;;5.50;2.97;;;17.30;54.30;;;;;;5134681;27;20054;-74
2022/04/24 08:07:22;;;;;;;5.90;2.50;;;16.60;49.60;;;;;;5134155;27;20047;-74
2022/04/24 08:09:49;;;;;;;6.73;2.40;;;16.30;50.50;;;;;;5133462;27;20051;-75
2022/04/24 08:12:16;;;;;;;5.73;2.30;;;16.00;51.30;;;;;;5134119;27;20444;-74
2022/04/24 08:14:42;;;;;;;4.73;2.10;;;15.90;52.20;;;;;;5133703;27;20055;-72
2022/04/24 08:17:07;;;;;;;4.27;2.10;;;15.70;52.10;;;;;;5133977;27;20050;-73
2022/04/24 08:19:33;;;;;;;6.27;2.10;;;15.60;52.10;;;;;;5133422;27;20039;-73
2022/04/24 08:21:59;;;;;;;4.73;2.00;;;15.70;55.10;;;;;;5133014;27;20035;-73
2022/04/24 08:24:25;;;;;;;4.70;2.30;;;15.50;62.00;;;;;;5133769;27;20050;-73
2022/04/24 08:26:50;;;;;;;4.57;2.33;;;15.30;63.80;;;;;;5134230;27;20067;-73
2022/04/24 08:29:16;;;;;;;5.33;2.30;;;15.40;65.00;;;;;;5134084;27;20054;-73
2022/04/24 08:31:42;;;;;;;5.77;2.47;;;15.20;52.00;;;;;;5133130;27;20087;-73
2022/04/24 08:34:07;;;;;;;6.17;2.80;;;15.20;53.10;;;;;;5133864;27;20072;-73
2022/04/24 08:36:33;;;;;;;4.97;2.53;;;15.10;54.80;;;;;;5132444;27;20043;-74
2022/04/24 08:38:59;;;;;;;9.10;2.83;;;15.10;55.70;;;;;;5132875;27;20039;-74
2022/04/24 08:41:29;;;;;;;6.03;2.60;;;15.00;56.20;;;;;;5132536;27;20575;-74
2022/04/24 08:43:56;;;;;;;9.33;2.73;;;15.00;57.00;;;;;;5133705;27;20059;-73
2022/04/24 08:46:23;;;;;;;6.37;2.70;;;14.90;57.10;;;;;;5133775;27;20273;-73
2022/04/24 08:48:49;;;;;;;5.57;2.97;;;14.80;57.40;;;;;;5133938;27;20281;-73
2022/04/24 08:51:17;;;;;;;7.03;2.53;;;14.80;57.40;;;;;;5133730;28;20269;-73
2022/04/24 08:53:43;;;;;;;7.10;2.70;;;14.70;57.50;;;;;;5133057;28;20043;-73
2022/04/24 08:56:09;;;;;;;7.40;2.40;;;14.70;58.00;;;;;;5132478;28;20288;-73
2022/04/24 08:58:34;;;;;;;5.10;2.37;;;14.70;58.40;;;;;;5133899;27;20272;-73
2022/04/24 09:01:00;;;;;;;6.30;2.20;;;14.60;58.40;;;;;;5134069;27;20521;-72
2022/04/24 09:03:26;;;;;;;6.47;2.83;;;14.60;58.80;;;;;;5131321;28;20039;-73
2022/04/24 09:05:51;;;;;;;6.23;3.00;;;14.60;60.20;;;;;;5132166;28;20226;-73
2022/04/24 09:08:24;;;;;;;5.50;2.57;;;14.60;59.80;;;;;;5113040;28;20046;-73
2022/04/24 09:10:57;;;;;;;4.87;2.70;;;14.70;60.70;;;;;;5113420;28;20047;-73
2022/04/24 09:13:29;;;;;;;5.10;2.53;;;14.70;59.40;;;;;;5112909;28;20390;-73
2022/04/24 09:15:56;;;;;;;6.03;2.80;;;14.70;58.50;;;;;;5113141;28;20288;-73
2022/04/24 09:18:22;;;;;;;5.83;2.47;;;14.70;59.00;;;;;;5112857;28;20277;-72
2022/04/24 09:20:54;;;;;;;6.87;2.80;;;14.70;58.70;;;;;;5113346;28;20473;-74
2022/04/24 09:23:20;;;;;;;5.23;3.00;;;14.70;59.10;;;;;;5128786;28;20039;-71
2022/04/24 09:25:46;;;;;;;5.20;2.53;;;14.60;59.10;;;;;;5113069;28;20273;-72
2022/04/24 09:28:12;;;;;;;9.67;2.70;;;14.70;58.70;;;;;;5111488;28;20289;-73
2022/04/24 09:30:48;;;;;;;7.00;2.90;;;14.70;57.70;;;;;;5112151;28;20134;-73
2022/04/24 09:33:14;;;;;;;6.07;2.57;;;14.70;58.30;;;;;;5112798;28;20265;-73
2022/04/24 09:35:42;;;;;;;5.20;2.63;;;14.80;57.80;;;;;;5112413;28;20359;-73
2022/04/24 09:38:17;;;;;;;6.03;2.90;;;14.80;57.60;;;;;;5112743;28;20281;-73
2022/04/24 09:40:44;;;;;;;5.38;2.85;;;;;;;;;;5112075;28;20294;-72
2022/04/24 09:43:14;;;;;;;5.37;2.57;;;;;;;;;;5112217;28;20079;-72
2022/04/24 09:45:41;;;;;;;8.03;3.00;;;;;;;;;;5112982;28;20690;-73
2022/04/24 09:48:18;;;;;;;5.67;3.03;;;;;;;;;;5114841;28;20638;-72
2022/04/24 09:50:44;;;;;;;15.10;3.60;;;;;;;;;;5116674;28;20273;-73
2022/04/24 09:53:12;;;;;;;8.30;3.10;;;;;;;;;;5116355;28;20276;-72
2022/04/24 09:55:40;;;;;;;7.37;3.20;;;;;;;;;;5115917;28;20293;-72
2022/04/24 09:58:07;;;;;;;6.60;3.27;;;;;;;;;;5115657;28;20296;-72
2022/04/24 10:00:34;;;;;;;9.10;3.00;;;;;;;;;;5115171;28;20635;-73
2022/04/24 10:03:02;;;;;;;6.17;3.30;;;14.80;91.50;;;;;;5116329;28;20804;-73
2022/04/24 10:05:32;;;;;;;9.70;3.17;;;14.80;91.50;;;;;;5116144;28;20282;-72
2022/04/24 10:07:59;;;;;;;7.17;2.77;;;14.80;91.50;;;;;;5115371;28;20278;-72
2022/04/24 10:10:25;;;;;;;9.23;3.27;;;14.80;90.80;;;;;;5116049;28;20273;-73
2022/04/24 10:12:52;;;;;;;7.30;2.90;;;14.80;90.40;;;;;;5116133;28;20277;-73
2022/04/24 10:15:19;;;;;;;5.60;3.10;;;;;;;;;;5115843;28;20052;-72
2022/04/24 10:17:57;;;;;;;6.40;3.03;;;14.80;91.30;;;;;;5116036;28;20273;-73
2022/04/24 10:20:23;;;;;;;8.50;2.87;;;14.80;87.60;;;;;;5115824;27;20277;-73
2022/04/24 10:22:53;;;;;;;8.97;2.53;;;14.90;87.10;;;;;;5116187;28;20294;-73
2022/04/24 10:25:35;;;;;;;4.30;2.37;;;14.90;57.00;;;;;;5115783;28;20277;-74
2022/04/24 10:28:16;;;;;;;7.80;2.20;;;14.90;56.50;;;;;;5116260;28;20605;-73
2022/04/24 10:30:42;;;;;;;4.40;2.40;;;15.00;56.20;;;;;;5115280;27;20675;-75
2022/04/24 10:33:23;;;;;;;7.17;2.23;;;14.90;56.10;;;;;;5114825;28;20327;-79
2022/04/24 10:35:54;;;;;;;6.50;2.77;;;15.10;82.80;;;;;;5114953;28;20293;-78
2022/04/24 10:38:24;;;;;;;6.33;2.90;;;15.10;58.10;;;;;;5115672;28;20300;-73
2022/04/24 10:41:06;;;;;;;7.13;2.80;;;15.10;57.60;;;;;;5115701;28;20309;-76
2022/04/24 10:43:40;;;;;;;5.27;2.77;;;15.20;57.40;;;;;;5115089;28;20792;-74
2022/04/24 10:46:26;;;;;;;9.33;2.90;;;15.10;57.00;;;;;;5115969;28;20330;-75
2022/04/24 10:48:53;;;;;;;7.50;3.50;;;15.10;58.10;;;;;;5114631;28;20343;-76
2022/04/24 10:51:30;;;;;;;7.47;3.40;;;15.10;59.50;;;;;;5115212;28;20285;-74
2022/04/24 10:54:01;;;;;;;6.63;3.47;;;15.20;60.30;;;;;;5115524;28;20265;-74
2022/04/24 10:56:29;;;;;;;8.37;2.90;;;15.20;59.20;;;;;;5115066;28;20277;-74
2022/04/24 10:59:10;;;;;;;7.07;2.73;;;15.20;59.10;;;;;;5114947;28;20594;-74
2022/04/24 11:01:38;;;;;;;7.90;2.90;;;15.20;59.10;;;;;;5114990;28;20281;-72
2022/04/24 11:04:06;;;;;;;6.03;2.60;;;15.20;57.50;;;;;;5115133;28;20289;-72
2022/04/24 11:06:32;;;;;;;9.63;3.47;;;15.20;59.00;;;;;;5113954;28;20586;-71
2022/04/24 11:09:12;;;;;;;8.10;2.60;;;15.20;59.80;;;;;;5115343;28;20281;-72
2022/04/24 11:11:46;;;;;;;6.53;3.00;;;15.30;58.90;;;;;;5130732;27;20484;-74
2022/04/24 11:14:13;;;;;;;7.80;3.03;;;15.30;58.30;;;;;;5115024;28;20422;-73
2022/04/24 11:16:38;;;;;;;12.97;3.30;;;15.20;59.60;;;;;;5113748;28;20287;-75
2022/04/24 11:19:05;;;;;;;8.23;2.87;;;15.20;60.30;;;;;;5115298;28;20612;-74
2022/04/24 11:21:40;;;;;;;9.10;3.50;;;15.30;60.90;;;;;;5114911;28;20498;-75
2022/04/24 11:24:06;;;;;;;8.80;2.58;;;15.40;60.90;;;;;;5114817;28;20753;-76
2022/04/24 11:26:32;;;;;;;5.83;3.10;;;15.50;60.70;;;;;;5114494;27;20044;-75
2022/04/24 11:29:08;;;;;;;7.83;3.13;;;15.40;60.40;;;;;;5114866;28;20334;-75
2022/04/24 11:31:33;;;;;;;10.00;2.97;;;15.40;60.90;;;;;;5114431;27;20051;-75
2022/04/24 11:34:00;;;;;;;9.50;3.57;;;15.30;61.20;;;;;;5114712;28;20284;-75
2022/04/24 11:36:31;;;;;;;11.57;4.20;;;15.20;64.30;;;;;;5113104;28;20083;-71
2022/04/24 11:38:58;;;;;;;8.23;4.23;;;15.10;69.70;;;;;;5130424;27;20364;-71
2022/04/24 11:41:29;;;;;;;10.20;3.97;;;15.10;67.90;;;;;;5114144;28;20277;-71
2022/04/24 11:50:13;;;;;;;10.23;4.33;;;15.00;70.30;;;;;;5114224;28;20800;-71
2022/04/24 11:52:20;;;;;;;7.63;4.03;;;15.00;72.60;;;;;;5114320;28;20362;-72
2022/04/24 11:54:48;;;;;;;10.03;3.60;;;14.90;74.90;;;;;;5113440;28;20736;-76
2022/04/24 11:57:14;;;;;;;8.30;4.03;;;15.00;73.70;;;;;;5114061;27;20277;-74
2022/04/24 11:59:40;;;;;;;8.50;3.57;;;15.00;72.20;;;;;;5112723;28;20292;-72
2022/04/24 12:02:14;;;;;;;13.20;4.20;;;15.00;73.30;;;;;;5113535;28;20305;-71
2022/04/24 12:04:40;;;;;;;10.33;4.27;;;14.90;73.10;;;;;;5113728;28;20047;-70
2022/04/24 12:07:08;;;;;;;8.23;4.70;;;14.90;72.80;;;;;;5113887;28;20757;-70
2022/04/24 12:09:37;;;;;;;10.30;4.87;;;14.70;75.90;;;;;;5113026;28;20079;-70
2022/04/24 12:12:23;;;;;;;9.53;4.17;;;14.80;76.60;;;;;;5113844;28;20288;-71
2022/04/24 12:14:51;;;;;;;7.73;4.20;;;14.80;76.50;;;;;;5113540;28;20320;-71
2022/04/24 12:17:18;;;;;;;8.87;4.30;;;14.80;77.40;;;;;;5113692;28;20285;-70
2022/04/24 12:19:51;;;;;;;10.80;4.40;;;14.80;77.20;;;;;;5129305;27;20285;-71
2022/04/24 12:22:34;;;;;;;9.43;4.30;;;14.80;78.10;;;;;;5113492;28;20297;-71
2022/04/24 12:25:18;;;;;;;11.73;4.70;;;14.70;78.00;;;;;;5113702;28;20270;-71
2022/04/24 12:27:57;;;;;;;12.83;5.20;;;14.80;84.10;;;;;;5113393;28;20602;-71
2022/04/24 12:30:26;;;;;;;9.13;4.60;;;14.60;79.10;;;;;;5113588;28;20301;-71
2022/04/24 12:32:52;;;;;;;10.97;5.10;;;14.40;81.90;;;;;;5112873;28;20768;-73
2022/04/24 12:35:33;;;;;;;10.97;4.00;;;14.50;84.30;;;;;;5113496;28;20282;-78
2022/04/24 12:38:00;;;;;;;8.90;4.53;;;14.60;80.50;;;;;;5113807;28;20048;-77
2022/04/24 12:40:26;;;;;;;11.83;5.07;;;14.60;79.10;;;;;;5123498;27;20337;-76
2022/04/24 12:42:53;;;;;;;10.20;4.63;;;14.60;79.70;;;;;;5126854;27;20293;-76
2022/04/24 12:45:20;;;;;;;8.63;4.40;;;14.60;80.50;;;;;;5127828;27;20311;-74
2022/04/24 12:47:50;;;;;;;9.10;4.67;;;14.50;81.40;;;;;;5125684;27;20701;-76
2022/04/24 12:50:16;;;;;;;8.87;4.67;;;14.50;82.30;;;;;;5120235;27;20277;-76
2022/04/24 12:52:43;;;;;;;10.03;4.53;;;14.60;81.20;;;;;;5126281;28;20548;-77
2022/04/24 12:55:09;;;;;;;11.63;4.47;;;14.50;79.40;;;;;;5127005;28;20862;-77
2022/04/24 12:57:35;;;;;;;7.83;4.10;;;14.50;80.80;;;;;;5126712;27;20276;-78
2022/04/24 13:00:05;;;;;;;9.27;4.50;;;14.50;79.80;;;;;;5127455;27;20299;-77